createdAt,value
2022-11-07T00:01:21.305Z,2.00
2022-11-07T00:03:49.585Z,1.80
2022-11-07T00:06:17.614Z,2.20
2022-11-07T00:08:46.101Z,1.70
2022-11-07T00:11:14.178Z,1.70
2022-11-07T00:13:42.375Z,2.10
2022-11-07T00:16:11.671Z,2.00
2022-11-07T00:18:39.836Z,1.80
2022-11-07T00:21:10.163Z,1.80
2022-11-07T00:23:41.693Z,1.70
2022-11-07T00:26:13.477Z,1.80
2022-11-07T00:28:43.675Z,1.50
2022-11-07T00:31:13.722Z,2.00
2022-11-07T00:33:43.335Z,1.50
2022-11-07T00:36:21.561Z,1.70
2022-11-07T00:38:50.137Z,1.70
2022-11-07T00:41:19.227Z,1.50
2022-11-07T00:43:47.514Z,1.40
2022-11-07T00:46:17.121Z,1.70
2022-11-07T00:48:45.504Z,1.80
2022-11-07T00:51:25.530Z,1.60
2022-11-07T00:53:54.036Z,1.70
2022-11-07T00:56:25.184Z,1.60
2022-11-07T00:58:57.739Z,1.30
2022-11-07T01:01:30.251Z,1.60
2022-11-07T01:03:59.139Z,1.50
2022-11-07T01:06:29.157Z,2.10
2022-11-07T01:08:57.538Z,1.60
2022-11-07T01:11:30.056Z,1.70
2022-11-07T01:14:00.836Z,1.20
2022-11-07T01:16:30.575Z,1.40
2022-11-07T01:18:58.656Z,1.60
2022-11-07T01:21:27.065Z,1.50
2022-11-07T01:23:55.204Z,1.30
2022-11-07T01:26:23.822Z,1.50
2022-11-07T01:28:52.176Z,1.20
2022-11-07T01:31:20.459Z,1.20
2022-11-07T01:33:48.572Z,1.30
2022-11-07T01:36:18.537Z,1.20
2022-11-07T01:38:48.541Z,1.10
2022-11-07T01:41:22.071Z,1.50
2022-11-07T01:43:56.260Z,1.20
2022-11-07T01:46:32.073Z,1.10
2022-11-07T01:49:09.776Z,1.10
2022-11-07T01:54:10.948Z,1.10
2022-11-07T01:56:42.281Z,1.10
2022-11-07T01:59:14.472Z,1.10
2022-11-07T02:01:44.051Z,1.00
2022-11-07T02:04:13.334Z,1.30
2022-11-07T02:06:52.364Z,1.00
2022-11-07T02:09:20.844Z,1.10
2022-11-07T02:11:49.126Z,1.20
2022-11-07T02:14:18.939Z,1.00
2022-11-07T02:16:47.323Z,1.60
2022-11-07T02:19:33.514Z,1.10
2022-11-07T02:22:01.791Z,0.90
2022-11-07T02:24:33.510Z,1.10
2022-11-07T02:27:07.362Z,0.80
2022-11-07T02:29:38.869Z,1.20
2022-11-07T02:32:09.558Z,1.10
2022-11-07T02:34:38.341Z,1.00
2022-11-07T02:37:17.295Z,1.00
2022-11-07T02:39:45.440Z,0.90
2022-11-07T02:42:13.523Z,1.30
2022-11-07T02:44:41.900Z,0.80
2022-11-07T02:47:10.201Z,1.10
2022-11-07T02:49:38.461Z,0.90
2022-11-07T02:52:06.844Z,0.80
2022-11-07T02:54:34.941Z,0.90
2022-11-07T02:57:03.103Z,1.20
2022-11-07T02:59:33.226Z,1.00
2022-11-07T03:02:01.836Z,1.30
2022-11-07T03:04:30.090Z,1.20
2022-11-07T03:06:58.387Z,1.00
2022-11-07T03:09:26.547Z,1.10
2022-11-07T03:11:54.843Z,1.10
2022-11-07T03:14:23.067Z,1.10
2022-11-07T03:16:51.096Z,1.00
2022-11-07T03:19:19.367Z,1.10
2022-11-07T03:21:50.615Z,0.80
2022-11-07T03:24:19.100Z,1.20
2022-11-07T03:26:47.216Z,1.20
2022-11-07T03:29:15.557Z,1.00
2022-11-07T03:31:43.741Z,1.10
2022-11-07T03:34:11.915Z,1.20
2022-11-07T03:36:40.401Z,1.20
2022-11-07T03:39:08.578Z,1.10
2022-11-07T03:41:36.860Z,1.40
2022-11-07T03:44:05.145Z,1.40
2022-11-07T03:46:33.420Z,1.20
2022-11-07T03:49:01.527Z,1.20
2022-11-07T03:51:29.879Z,1.20
2022-11-07T03:53:57.955Z,1.30
2022-11-07T03:56:26.306Z,1.10
2022-11-07T03:58:54.522Z,1.40
2022-11-07T04:01:22.867Z,1.50
2022-11-07T04:03:55.269Z,1.10
2022-11-07T04:06:24.478Z,1.10
2022-11-07T04:08:52.557Z,1.20
2022-11-07T04:11:20.832Z,1.30
2022-11-07T04:13:48.915Z,1.40
2022-11-07T04:16:19.132Z,1.30
2022-11-07T04:18:47.060Z,1.40
2022-11-07T04:21:15.490Z,1.20
2022-11-07T04:23:44.080Z,1.10
2022-11-07T04:26:12.267Z,1.30
2022-11-07T04:28:40.334Z,1.20
2022-11-07T04:31:08.514Z,1.10
2022-11-07T04:33:36.689Z,1.00
2022-11-07T04:36:05.820Z,1.10
2022-11-07T04:38:33.865Z,1.20
2022-11-07T04:41:02.042Z,1.30
2022-11-07T04:43:30.346Z,1.10
2022-11-07T04:45:58.502Z,1.10
2022-11-07T04:48:26.678Z,1.10
2022-11-07T04:50:55.061Z,1.30
2022-11-07T04:53:23.035Z,1.10
2022-11-07T04:55:51.169Z,1.20
2022-11-07T04:58:19.392Z,1.10
2022-11-07T05:00:47.676Z,1.00
2022-11-07T05:03:16.146Z,1.20
2022-11-07T05:05:44.745Z,1.40
2022-11-07T05:08:12.824Z,1.10
2022-11-07T05:10:40.999Z,1.70
2022-11-07T05:13:09.321Z,1.10
2022-11-07T05:15:38.081Z,1.10
2022-11-07T05:18:06.232Z,1.30
2022-11-07T05:20:37.273Z,1.10
2022-11-07T05:23:06.600Z,1.10
2022-11-07T05:25:34.630Z,1.10
2022-11-07T05:28:02.964Z,1.10
2022-11-07T05:30:31.208Z,1.10
2022-11-07T05:32:59.400Z,1.00
2022-11-07T05:35:27.600Z,1.20
2022-11-07T05:37:55.772Z,1.10
2022-11-07T05:40:23.847Z,1.20
2022-11-07T05:42:52.233Z,1.20
2022-11-07T05:45:20.411Z,1.10
2022-11-07T05:47:48.702Z,1.50
2022-11-07T05:50:17.381Z,1.20
2022-11-07T05:52:45.570Z,1.20
2022-11-07T05:55:13.764Z,1.30
2022-11-07T05:57:42.544Z,1.00
2022-11-07T06:00:11.251Z,1.20
2022-11-07T06:02:40.060Z,1.10
2022-11-07T06:05:08.904Z,1.20
2022-11-07T06:07:38.565Z,1.30
2022-11-07T06:10:07.675Z,1.10
2022-11-07T06:12:35.998Z,1.10
2022-11-07T06:15:04.653Z,1.40
2022-11-07T06:17:32.662Z,1.00
2022-11-07T06:20:00.944Z,1.20
2022-11-07T06:22:30.451Z,1.50
2022-11-07T06:24:58.734Z,1.80
2022-11-07T06:27:26.910Z,1.50
2022-11-07T06:29:54.883Z,1.20
2022-11-07T06:32:23.065Z,1.30
2022-11-07T06:34:52.161Z,2.50
2022-11-07T06:37:20.445Z,1.70
2022-11-07T06:39:48.826Z,1.60
2022-11-07T06:42:17.002Z,1.50
2022-11-07T06:44:45.085Z,1.90
2022-11-07T06:47:13.258Z,1.60
2022-11-07T06:49:41.745Z,1.70
2022-11-07T06:52:09.821Z,1.70
2022-11-07T06:54:38.099Z,1.70
2022-11-07T06:57:06.619Z,1.70
2022-11-07T06:59:35.183Z,1.70
2022-11-07T07:02:03.501Z,2.20
2022-11-07T07:04:32.106Z,2.10
2022-11-07T07:07:00.448Z,1.90
2022-11-07T07:09:28.816Z,2.30
2022-11-07T07:11:57.193Z,2.20
2022-11-07T07:14:25.595Z,2.00
2022-11-07T07:16:53.751Z,2.40
2022-11-07T07:19:22.243Z,2.30
2022-11-07T07:21:50.290Z,2.40
2022-11-07T07:24:18.344Z,2.30
2022-11-07T07:26:46.548Z,2.30
2022-11-07T07:29:14.581Z,2.30
2022-11-07T07:31:42.673Z,1.90
2022-11-07T07:34:10.744Z,2.10
2022-11-07T07:36:38.864Z,1.80
2022-11-07T07:39:06.946Z,2.10
2022-11-07T07:41:39.898Z,2.10
2022-11-07T07:44:08.401Z,2.40
2022-11-07T07:46:36.607Z,2.00
2022-11-07T07:49:04.603Z,1.70
2022-11-07T07:51:32.722Z,2.10
2022-11-07T07:54:00.866Z,2.20
2022-11-07T07:56:28.985Z,1.90
2022-11-07T07:58:57.058Z,2.50
2022-11-07T08:01:25.512Z,2.00
2022-11-07T08:04:02.612Z,2.40
2022-11-07T08:11:27.500Z,1.90
2022-11-07T08:13:59.924Z,2.60
2022-11-07T08:16:29.947Z,3.10
2022-11-07T08:18:57.992Z,2.50
2022-11-07T08:21:26.283Z,2.60
2022-11-07T08:23:54.228Z,2.70
2022-11-07T08:26:22.297Z,3.30
2022-11-07T08:28:50.265Z,2.70
2022-11-07T08:31:18.325Z,3.80
2022-11-07T08:33:46.481Z,2.70
2022-11-07T08:36:14.638Z,2.90
2022-11-07T08:38:42.587Z,2.80
2022-11-07T08:41:10.946Z,3.70
2022-11-07T08:43:38.897Z,3.10
2022-11-07T08:46:07.157Z,3.10
2022-11-07T08:48:35.453Z,2.60
2022-11-07T08:51:03.996Z,2.70
2022-11-07T08:53:32.866Z,1.80
2022-11-07T08:56:07.326Z,2.00
2022-11-07T08:58:36.758Z,2.00
2022-11-07T09:01:06.947Z,2.20
2022-11-07T09:03:48.667Z,2.10
2022-11-07T09:06:21.796Z,2.30
2022-11-07T09:08:50.059Z,2.50
2022-11-07T09:11:18.566Z,2.20
2022-11-07T09:13:46.627Z,2.40
2022-11-07T09:16:18.695Z,2.90
2022-11-07T09:18:51.567Z,2.90
2022-11-07T09:21:22.699Z,2.80
2022-11-07T09:23:51.986Z,2.60
2022-11-07T09:26:19.924Z,3.00
2022-11-07T09:28:52.153Z,3.00
2022-11-07T09:31:22.514Z,3.00
2022-11-07T09:33:51.096Z,3.50
2022-11-07T09:36:19.136Z,3.30
2022-11-07T09:38:47.115Z,3.20
2022-11-07T09:42:16.858Z,3.60
2022-11-07T09:44:56.578Z,3.70
2022-11-07T09:47:32.726Z,3.60
2022-11-07T09:50:24.141Z,3.40
2022-11-07T09:53:02.019Z,3.80
2022-11-07T09:55:41.700Z,3.50
2022-11-07T09:58:28.816Z,2.90
2022-11-07T10:01:01.973Z,2.90
2022-11-07T10:03:31.023Z,2.90
2022-11-07T10:06:16.658Z,2.60
2022-11-07T10:09:01.677Z,1.80
2022-11-07T10:11:37.322Z,2.00
2022-11-07T10:14:14.430Z,1.70
2022-11-07T10:17:20.078Z,1.50
2022-11-07T10:20:02.984Z,2.40
2022-11-07T10:22:46.499Z,2.30
2022-11-07T10:25:40.693Z,2.40
2022-11-07T10:28:18.985Z,1.90
2022-11-07T10:30:52.557Z,1.80
2022-11-07T10:33:42.477Z,2.00
2022-11-07T10:36:25.084Z,2.10
2022-11-07T10:38:53.397Z,1.90
2022-11-07T10:41:24.585Z,1.90
2022-11-07T10:44:05.600Z,2.00
2022-11-07T10:46:41.442Z,2.20
2022-11-07T10:49:23.623Z,2.10
2022-11-07T10:51:52.655Z,2.00
2022-11-07T10:54:22.294Z,1.70
2022-11-07T10:57:01.882Z,1.90
2022-11-07T10:59:36.117Z,1.70
2022-11-07T11:02:22.448Z,1.80
2022-11-07T11:04:56.984Z,2.30
2022-11-07T11:07:33.263Z,1.90
2022-11-07T11:10:01.777Z,1.80
2022-11-07T11:12:34.517Z,1.60
2022-11-07T11:15:10.297Z,1.60
2022-11-07T11:17:39.033Z,1.70
2022-11-07T11:20:28.869Z,1.80
2022-11-07T11:22:57.456Z,1.70
2022-11-07T11:25:25.879Z,1.70
2022-11-07T11:28:07.235Z,1.80
2022-11-07T11:30:37.095Z,1.60
2022-11-07T11:33:17.646Z,1.90
2022-11-07T11:35:55.723Z,2.10
2022-11-07T11:38:31.779Z,2.00
2022-11-07T11:41:10.899Z,1.90
2022-11-07T11:43:48.874Z,1.60
2022-11-07T11:46:30.948Z,1.70
2022-11-07T11:49:09.947Z,1.70
2022-11-07T11:51:44.935Z,1.90
2022-11-07T11:54:15.672Z,1.80
2022-11-07T11:57:01.278Z,1.80
2022-11-07T11:59:41.071Z,1.50
2022-11-07T12:02:35.670Z,1.90
2022-11-07T12:05:19.903Z,2.00
2022-11-07T12:08:26.639Z,1.60
2022-11-07T12:11:01.041Z,1.70
2022-11-07T12:13:55.308Z,2.00
2022-11-07T12:16:23.408Z,1.80
2022-11-07T12:18:51.383Z,1.50
2022-11-07T12:21:58.527Z,2.10
2022-11-07T12:24:38.135Z,1.90
2022-11-07T12:27:30.164Z,1.80
2022-11-07T12:30:16.006Z,1.80
2022-11-07T12:33:02.798Z,1.70
2022-11-07T12:35:53.397Z,1.50
2022-11-07T12:38:36.976Z,1.60
2022-11-07T12:41:14.276Z,1.60
2022-11-07T12:43:45.139Z,1.60
2022-11-07T12:46:16.203Z,1.60
2022-11-07T12:49:00.379Z,1.70
2022-11-07T12:51:47.229Z,1.30
2022-11-07T12:54:54.701Z,1.40
2022-11-07T12:57:26.178Z,1.60
2022-11-07T13:00:03.760Z,1.30
2022-11-07T13:02:38.166Z,1.50
2022-11-07T13:05:33.855Z,1.10
2022-11-07T13:08:41.414Z,1.20
2022-11-07T13:11:38.580Z,1.50
2022-11-07T13:14:28.046Z,1.30
2022-11-07T13:17:02.191Z,1.50
2022-11-07T13:19:33.153Z,1.30
2022-11-07T13:22:07.861Z,1.50
2022-11-07T13:24:49.702Z,1.30
2022-11-07T13:27:32.205Z,1.40
2022-11-07T13:30:13.425Z,1.40
2022-11-07T13:32:49.912Z,1.40
2022-11-07T13:35:29.171Z,1.20
2022-11-07T13:38:18.636Z,1.20
2022-11-07T13:40:48.910Z,1.50
2022-11-07T13:43:40.161Z,1.50
2022-11-07T13:46:19.726Z,1.70
2022-11-07T13:48:47.770Z,1.40
2022-11-07T13:51:37.225Z,1.10
2022-11-07T13:54:18.068Z,1.30
2022-11-07T13:56:57.605Z,1.40
2022-11-07T13:59:44.850Z,1.20
2022-11-07T14:02:27.802Z,1.20
2022-11-07T14:05:16.267Z,1.40
2022-11-07T14:07:51.617Z,1.20
2022-11-07T14:10:34.139Z,1.50
2022-11-07T14:13:36.940Z,1.50
2022-11-07T14:16:28.853Z,1.20
2022-11-07T14:19:06.819Z,1.50
2022-11-07T14:21:40.902Z,2.10
2022-11-07T14:24:30.852Z,1.40
2022-11-07T14:27:06.967Z,1.20
2022-11-07T14:29:34.997Z,2.00
2022-11-07T14:32:06.646Z,1.40
2022-11-07T14:34:36.542Z,1.50
2022-11-07T14:37:07.018Z,1.20
2022-11-07T14:39:39.370Z,1.80
2022-11-07T14:42:08.480Z,1.60
2022-11-07T14:44:58.242Z,2.00
2022-11-07T14:47:33.040Z,1.20
2022-11-07T14:50:03.626Z,1.70
2022-11-07T14:52:37.683Z,1.80
2022-11-07T14:55:19.990Z,1.60
2022-11-07T14:57:48.630Z,2.30
2022-11-07T15:00:20.760Z,1.80
2022-11-07T15:02:52.567Z,1.90
2022-11-07T15:05:30.616Z,1.80
2022-11-07T15:07:59.875Z,1.60
2022-11-07T15:10:36.598Z,1.50
2022-11-07T15:13:19.116Z,1.40
2022-11-07T15:15:58.769Z,1.60
2022-11-07T15:18:28.491Z,2.00
2022-11-07T15:21:00.513Z,1.60
2022-11-07T15:23:35.962Z,1.60
2022-11-07T15:26:06.982Z,1.40
2022-11-07T15:28:45.652Z,2.40
2022-11-07T15:31:28.804Z,1.70
2022-11-07T15:33:59.315Z,1.70
2022-11-07T15:36:27.434Z,1.50
2022-11-07T15:38:55.914Z,1.50
2022-11-07T15:41:24.015Z,2.10
2022-11-07T15:43:52.330Z,2.00
2022-11-07T15:46:37.263Z,1.60
2022-11-07T15:49:06.953Z,1.50
2022-11-07T15:51:35.199Z,1.60
2022-11-07T15:54:03.397Z,1.50
2022-11-07T15:56:31.576Z,1.70
2022-11-07T15:58:59.783Z,1.70
2022-11-07T16:01:28.237Z,1.80
2022-11-07T16:03:56.560Z,2.00
2022-11-07T16:06:29.616Z,1.60
2022-11-07T16:08:58.517Z,1.40
2022-11-07T16:11:27.123Z,1.70
2022-11-07T16:14:14.735Z,1.70
2022-11-07T16:16:45.610Z,1.80
2022-11-07T16:19:19.793Z,1.80
2022-11-07T16:21:47.752Z,1.70
2022-11-07T16:24:15.902Z,2.30
2022-11-07T16:26:46.762Z,1.70
2022-11-07T16:29:15.760Z,1.90
2022-11-07T16:31:44.652Z,1.60
2022-11-07T16:34:13.142Z,1.70
2022-11-07T16:36:41.735Z,1.70
2022-11-07T16:39:19.082Z,1.90
2022-11-07T16:41:48.214Z,1.70
2022-11-07T16:44:19.414Z,1.50
2022-11-07T16:46:51.355Z,1.60
2022-11-07T16:49:27.690Z,2.00
2022-11-07T16:51:56.072Z,1.90
2022-11-07T16:54:24.324Z,3.00
2022-11-07T16:56:52.989Z,2.30
2022-11-07T16:59:23.984Z,2.20
2022-11-07T17:01:52.708Z,2.00
2022-11-07T17:04:21.158Z,2.30
2022-11-07T17:06:49.545Z,2.30
2022-11-07T17:09:18.100Z,2.20
2022-11-07T17:11:46.922Z,2.90
2022-11-07T17:14:16.935Z,2.90
2022-11-07T17:16:48.466Z,3.10
2022-11-07T17:19:16.585Z,2.80
2022-11-07T17:21:44.722Z,2.00
2022-11-07T17:24:13.077Z,2.40
2022-11-07T17:26:41.507Z,2.60
2022-11-07T17:29:13.434Z,2.30
2022-11-07T17:31:42.427Z,2.90
2022-11-07T17:34:10.946Z,2.50
2022-11-07T17:36:46.432Z,2.40
2022-11-07T17:39:20.436Z,2.50
2022-11-07T17:41:51.176Z,2.40
2022-11-07T17:44:20.000Z,2.40
2022-11-07T17:46:49.705Z,2.20
2022-11-07T17:49:19.926Z,2.60
2022-11-07T17:51:47.975Z,2.30
2022-11-07T17:54:16.554Z,2.00
2022-11-07T17:56:44.832Z,2.70
2022-11-07T17:59:15.766Z,2.10
2022-11-07T18:01:45.575Z,2.70
2022-11-07T18:04:13.706Z,2.50
2022-11-07T18:06:43.050Z,2.60
2022-11-07T18:09:15.151Z,2.40
2022-11-07T18:11:44.265Z,2.40
2022-11-07T18:14:13.754Z,3.20
2022-11-07T18:16:42.035Z,2.70
2022-11-07T18:19:10.822Z,3.00
2022-11-07T18:21:39.059Z,2.90
2022-11-07T18:24:07.553Z,2.90
2022-11-07T18:26:35.663Z,2.90
2022-11-07T18:29:09.589Z,2.70
2022-11-07T18:31:38.777Z,3.20
2022-11-07T18:34:10.327Z,3.10
2022-11-07T18:36:40.181Z,2.90
2022-11-07T18:39:13.271Z,2.80
2022-11-07T18:41:41.614Z,3.60
2022-11-07T18:44:10.920Z,3.30
2022-11-07T18:46:39.178Z,3.60
2022-11-07T18:49:07.658Z,4.70
2022-11-07T18:51:35.759Z,4.00
2022-11-07T18:54:05.380Z,3.80
2022-11-07T18:56:33.875Z,3.70
2022-11-07T18:59:01.903Z,4.00
2022-11-07T19:01:31.210Z,4.40
2022-11-07T19:04:01.410Z,4.30
2022-11-07T19:06:30.724Z,4.40
2022-11-07T19:08:59.778Z,4.60
2022-11-07T19:11:29.863Z,4.40
2022-11-07T19:14:01.136Z,4.30
2022-11-07T19:16:30.145Z,4.90
2022-11-07T19:18:59.472Z,4.10
2022-11-07T19:21:27.661Z,4.30
2022-11-07T19:23:55.707Z,4.70
2022-11-07T19:26:23.797Z,4.10
2022-11-07T19:28:52.106Z,4.10
2022-11-07T19:31:20.419Z,4.10
2022-11-07T19:33:48.424Z,3.90
2022-11-07T19:36:18.634Z,4.00
2022-11-07T19:38:47.477Z,3.90
2022-11-07T19:41:16.674Z,3.70
2022-11-07T19:43:45.449Z,3.90
2022-11-07T19:46:19.599Z,4.10
2022-11-07T19:48:48.546Z,4.20
2022-11-07T19:51:22.180Z,3.00
2022-11-07T19:53:56.626Z,3.30
2022-11-07T19:56:26.735Z,3.00
2022-11-07T19:58:55.307Z,3.00
2022-11-07T20:01:27.419Z,3.30
2022-11-07T20:03:56.414Z,3.60
2022-11-07T20:06:27.523Z,3.70
2022-11-07T20:08:56.678Z,7.00
2022-11-07T20:11:26.453Z,4.80
2022-11-07T20:13:58.716Z,4.00
2022-11-07T20:16:30.012Z,4.30
2022-11-07T20:18:58.522Z,3.90
2022-11-07T20:21:26.600Z,4.20
2022-11-07T20:23:56.226Z,4.50
2022-11-07T20:26:26.263Z,5.00
2022-11-07T20:28:54.439Z,6.80
2022-11-07T20:31:28.670Z,6.20
2022-11-07T20:34:01.520Z,5.60
2022-11-07T20:36:30.217Z,5.10
2022-11-07T20:38:59.756Z,5.70
2022-11-07T20:41:28.601Z,4.60
2022-11-07T20:43:59.399Z,3.90
2022-11-07T20:46:27.659Z,3.70
2022-11-07T20:48:59.290Z,3.50
2022-11-07T20:51:27.991Z,3.70
2022-11-07T20:53:56.462Z,3.50
2022-11-07T20:56:27.027Z,3.20
2022-11-07T20:58:56.532Z,3.50
2022-11-07T21:01:31.292Z,3.90
2022-11-07T21:03:59.453Z,3.30
2022-11-07T21:06:27.805Z,3.30
2022-11-07T21:08:56.009Z,3.10
2022-11-07T21:11:24.474Z,3.20
2022-11-07T21:13:53.492Z,3.20
2022-11-07T21:16:23.624Z,3.20
2022-11-07T21:18:53.105Z,3.10
2022-11-07T21:21:24.928Z,2.90
2022-11-07T21:23:54.260Z,3.10
2022-11-07T21:26:32.288Z,3.00
2022-11-07T21:29:03.418Z,2.90
2022-11-07T21:31:31.654Z,3.30
2022-11-07T21:34:00.200Z,2.80
2022-11-07T21:36:30.511Z,2.60
2022-11-07T21:39:00.706Z,2.80
2022-11-07T21:41:30.013Z,2.70
2022-11-07T21:43:58.466Z,2.50
2022-11-07T21:46:29.559Z,2.40
2022-11-07T21:48:57.828Z,3.10
2022-11-07T21:51:28.551Z,2.90
2022-11-07T21:53:58.789Z,3.20
2022-11-07T21:56:32.522Z,2.70
2022-11-07T21:59:06.049Z,2.70
2022-11-07T22:01:35.473Z,2.60
2022-11-07T22:04:10.511Z,2.80
2022-11-07T22:06:41.976Z,2.80
2022-11-07T22:09:13.388Z,2.70
2022-11-07T22:11:42.519Z,2.70
2022-11-07T22:14:18.995Z,2.80
2022-11-07T22:16:47.279Z,2.90
2022-11-07T22:19:17.305Z,3.10
2022-11-07T22:21:45.897Z,3.00
2022-11-07T22:24:13.906Z,2.80
2022-11-07T22:26:42.355Z,2.60
2022-11-07T22:29:10.465Z,3.00
2022-11-07T22:31:38.556Z,2.70
2022-11-07T22:34:06.879Z,2.60
2022-11-07T22:36:35.026Z,2.60
2022-11-07T22:39:03.032Z,3.10
2022-11-07T22:41:31.229Z,2.70
2022-11-07T22:44:00.019Z,2.90
2022-11-07T22:46:30.329Z,3.10
2022-11-07T22:48:59.521Z,2.80
2022-11-07T22:51:30.448Z,2.90
2022-11-07T22:54:04.443Z,3.10
2022-11-07T22:56:34.457Z,3.20
2022-11-07T22:59:03.900Z,3.30
2022-11-07T23:01:40.877Z,3.20
2022-11-07T23:04:14.708Z,2.80
2022-11-07T23:06:42.684Z,3.40
2022-11-07T23:09:16.130Z,3.50
2022-11-07T23:11:46.314Z,3.60
2022-11-07T23:14:18.222Z,3.60
2022-11-07T23:16:51.803Z,3.80
2022-11-07T23:19:22.882Z,3.60
2022-11-07T23:21:52.552Z,3.90
2022-11-07T23:24:21.100Z,4.00
2022-11-07T23:26:49.857Z,4.00
2022-11-07T23:29:21.132Z,3.90
2022-11-07T23:31:50.435Z,3.90
2022-11-07T23:34:20.726Z,4.00
2022-11-07T23:36:52.796Z,3.90
2022-11-07T23:39:23.322Z,4.40
2022-11-07T23:41:51.703Z,4.00
2022-11-07T23:44:19.832Z,4.40
2022-11-07T23:46:47.909Z,3.90
2022-11-07T23:49:15.929Z,4.80
2022-11-07T23:51:45.794Z,4.50
2022-11-07T23:54:13.870Z,4.30
2022-11-07T23:56:42.329Z,4.30
2022-11-07T23:59:11.973Z,4.40
